Time;durP1;ratioP1;P1;durP2;ratioP2;P2;SDS_P1;SDS_P2;PMS_P1;PMS_P2;Temp;Humidity;BMP_temperature;BMP_pressure;BME280_temperature;BME280_humidity;BME280_pressure;Samples;Min_cycle;Max_cycle;Signal;HPM_P1;HPM_P2
2023/09/16 00:02:23;;;;;;;;;7.50;7.50;;;;;22.16;50.63;100719.19;5035846;28;45409;-40
2023/09/16 00:04:48;;;;;;;;;6.75;6.75;;;;;22.14;50.63;100723.16;5035671;28;45474;-40
2023/09/16 00:07:15;;;;;;;;;8.50;6.75;;;;;22.13;50.71;100716.09;5035736;28;46282;-38
2023/09/16 00:09:40;;;;;;;;;7.00;7.00;;;;;22.11;51.24;100710.84;5035323;28;45437;-45
2023/09/16 00:12:06;;;;;;;;;6.00;6.00;;;;;22.13;50.80;100726.91;5036061;28;45353;-42
2023/09/16 00:14:32;;;;;;;;;7.75;6.00;;;;;22.11;50.96;100720.84;5037637;28;45230;-38
2023/09/16 00:17:00;;;;;;;;;6.50;5.00;;;;;22.07;50.99;100714.22;5039002;28;45991;-39
2023/09/16 00:19:26;;;;;;;;;7.60;6.40;;;;;22.08;51.49;100718.56;5038969;28;45780;-40
2023/09/16 00:21:52;;;;;;;;;7.00;7.00;;;;;22.05;51.71;100703.63;5039274;28;45676;-39
2023/09/16 00:24:18;;;;;;;;;5.00;4.25;;;;;22.05;51.57;100714.44;5039261;28;45426;-39
2023/09/16 00:26:43;;;;;;;;;5.00;5.00;;;;;22.00;52.02;100711.59;5038863;28;47465;-41
2023/09/16 00:29:09;;;;;;;;;6.50;6.25;;;;;22.00;52.18;100722.44;5038970;28;45320;-40
2023/09/16 00:31:36;;;;;;;;;6.50;6.50;;;;;21.98;51.63;100710.16;5038979;28;45407;-39
2023/09/16 00:34:02;;;;;;;;;8.00;7.50;;;;;21.82;51.78;100679.84;5039034;28;45449;-39
2023/09/16 00:36:28;;;;;;;;;6.25;4.75;;;;;21.96;51.92;100707.66;5038379;28;46622;-39
2023/09/16 00:38:53;;;;;;;;;8.25;6.50;;;;;21.96;51.19;100706.84;5038724;28;45369;-38
2023/09/16 00:41:18;;;;;;;;;6.00;6.00;;;;;21.92;52.01;100706.44;5038632;28;45818;-43
2023/09/16 00:43:44;;;;;;;;;6.50;5.50;;;;;21.91;52.02;100705.63;5038717;28;45435;-39
2023/09/16 00:46:09;;;;;;;;;9.00;7.00;;;;;21.92;52.72;100707.28;5039018;28;45456;-40
2023/09/16 00:48:35;;;;;;;;;9.75;7.25;;;;;21.85;52.38;100686.72;5038552;28;45500;-39
2023/09/16 00:51:01;;;;;;;;;7.00;7.00;;;;;21.89;52.78;100701.47;5038950;28;45488;-40
2023/09/16 00:53:27;;;;;;;;;6.50;6.50;;;;;21.90;53.05;100700.41;5038844;28;45379;-40
2023/09/16 00:55:52;;;;;;;;;5.50;5.50;;;;;21.85;53.01;100692.97;5038486;28;45384;-40
2023/09/16 00:58:18;;;;;;;;;11.50;7.25;;;;;21.75;52.76;100676.41;5038451;28;45409;-41
2023/09/16 01:00:47;;;;;;;;;8.50;8.50;;;;;21.85;52.40;100686.72;5038308;28;45255;-38
2023/09/16 01:03:14;;;;;;;;;8.25;6.00;;;;;21.70;52.92;100667.28;5038422;28;45453;-39
2023/09/16 01:05:40;;;;;;;;;8.75;7.50;;;;;21.84;52.84;100691.31;5037923;28;45789;-38
2023/09/16 01:08:06;;;;;;;;;7.75;6.00;;;;;21.83;52.38;100688.84;5038268;28;45438;-40
2023/09/16 01:10:32;;;;;;;;;9.25;6.00;;;;;21.82;53.26;100693.41;5038400;28;45422;-41
2023/09/16 01:12:58;;;;;;;;;11.00;7.50;;;;;21.82;52.66;100698.00;5038404;28;45479;-41
2023/09/16 01:15:31;;;;;;;;;7.25;7.25;;;;;21.78;52.28;100691.34;5038462;28;46303;-41
2023/09/16 01:17:56;;;;;;;;;8.40;7.60;;;;;21.76;53.50;100690.75;5038251;28;45318;-40
2023/09/16 01:20:22;;;;;;;;;7.00;6.00;;;;;21.74;53.66;100693.69;5038617;28;45433;-41
2023/09/16 01:22:49;;;;;;;;;9.25;8.00;;;;;21.71;53.72;100686.03;5038403;28;45422;-39
2023/09/16 01:25:15;;;;;;;;;9.25;9.25;;;;;21.72;53.64;100684.97;5036491;28;47787;-41
2023/09/16 01:27:41;;;;;;;;;12.00;8.75;;;;;21.70;54.29;100680.81;5038344;28;45429;-39
2023/09/16 01:30:08;;;;;;;;;9.75;8.25;;;;;21.68;54.44;100681.88;5038323;28;45324;-39
2023/09/16 01:32:54;;;;;;;;;6.50;6.50;;;;;21.64;53.76;100686.06;5038264;28;45276;-40
2023/09/16 01:35:22;;;;;;;;;11.25;7.25;;;;;21.69;54.05;100688.09;5037623;28;45954;-40
2023/09/16 01:37:51;;;;;;;;;8.50;6.50;;;;;21.66;53.89;100686.69;5038311;28;45347;-40
2023/09/16 01:40:21;;;;;;;;;8.75;8.25;;;;;21.61;54.27;100672.97;5038334;28;45224;-37
2023/09/16 01:42:47;;;;;;;;;6.25;5.75;;;;;21.63;54.64;100678.16;5038197;28;45450;-40
2023/09/16 01:45:14;;;;;;;;;7.00;7.00;;;;;21.63;54.29;100689.00;5038147;28;45389;-39
2023/09/16 01:47:39;;;;;;;;;8.50;8.50;;;;;21.60;54.55;100690.25;5037884;28;45361;-39
2023/09/16 01:50:05;;;;;;;;;6.75;6.75;;;;;21.57;54.15;100677.16;5038119;28;45299;-39
2023/09/16 01:52:30;;;;;;;;;7.25;5.00;;;;;21.57;54.74;100682.56;5038109;28;45484;-40
2023/09/16 01:54:55;;;;;;;;;7.25;6.75;;;;;21.55;54.67;100675.75;5037863;28;45323;-38
2023/09/16 01:57:21;;;;;;;;;7.50;6.00;;;;;21.47;54.93;100660.59;5038078;28;45295;-39
2023/09/16 01:59:46;;;;;;;;;5.00;5.00;;;;;21.52;55.34;100666.16;5037698;28;45796;-40
2023/09/16 02:02:11;;;;;;;;;7.75;7.75;;;;;21.51;55.06;100663.69;5038072;28;45823;-38
2023/09/16 02:04:38;;;;;;;;;9.25;8.00;;;;;21.47;54.95;100657.06;5037398;28;46871;-38
2023/09/16 02:07:04;;;;;;;;;10.20;6.80;;;;;21.46;55.19;100661.66;5037404;28;45401;-38
2023/09/16 02:09:29;;;;;;;;;6.25;6.25;;;;;21.46;54.72;100656.25;5037729;28;45429;-39
2023/09/16 02:11:55;;;;;;;;;7.00;6.75;;;;;21.47;55.34;100666.00;5037811;28;45372;-40
2023/09/16 02:14:20;;;;;;;;;4.75;4.75;;;;;21.48;55.56;100662.25;5037824;28;45408;-39
2023/09/16 02:16:45;;;;;;;;;7.00;7.00;;;;;21.45;55.65;100660.00;5037327;28;45479;-38
2023/09/16 02:19:11;;;;;;;;;7.50;6.50;;;;;21.45;55.32;100660.00;5037685;28;45461;-40
2023/09/16 02:21:37;;;;;;;;;10.25;8.00;;;;;21.44;55.59;100650.19;5037459;28;45333;-40
2023/09/16 02:24:02;;;;;;;;;8.00;7.75;;;;;21.44;55.91;100652.91;5037268;28;46142;-39
2023/09/16 02:26:28;;;;;;;;;8.00;8.00;;;;;21.44;55.65;100644.78;5037446;28;45370;-39
2023/09/16 02:28:53;;;;;;;;;6.00;6.00;;;;;21.40;55.17;100646.28;5037519;28;45417;-39
2023/09/16 02:31:18;;;;;;;;;9.25;7.00;;;;;21.35;55.74;100657.75;5037505;28;45435;-39
2023/09/16 02:33:44;;;;;;;;;7.00;7.00;;;;;21.32;56.04;100663.63;5037102;28;46425;-39
2023/09/16 02:36:09;;;;;;;;;8.75;7.00;;;;;21.21;56.20;100642.66;5036579;28;45291;-40
2023/09/16 02:38:34;;;;;;;;;7.00;7.00;;;;;21.26;55.86;100644.69;5037079;28;45686;-40
2023/09/16 02:41:04;;;;;;;;;7.50;7.00;;;;;21.23;56.45;100645.94;5037231;28;45514;-39
2023/09/16 02:43:29;;;;;;;;;10.50;8.00;;;;;21.16;55.34;100643.31;5036784;28;45338;-40
2023/09/16 02:45:57;;;;;;;;;5.50;5.50;;;;;21.14;56.74;100644.56;5037143;28;45394;-40
2023/09/16 02:48:23;;;;;;;;;6.50;5.75;;;;;21.11;55.89;100632.31;5037543;28;45468;-40
2023/09/16 02:50:48;;;;;;;;;9.75;9.75;;;;;21.10;55.63;100646.88;5037404;28;45231;-40
2023/09/16 02:53:14;;;;;;;;;7.25;6.75;;;;;20.99;56.93;100623.25;5037007;28;45971;-39
2023/09/16 02:55:39;;;;;;;;;19.75;14.50;;;;;21.06;56.57;100629.44;5036752;28;45384;-39
2023/09/16 02:58:05;;;;;;;;;35.00;27.33;;;;;21.06;55.89;100640.25;5037060;28;45216;-39
2023/09/16 03:00:32;;;;;;;;;13.75;10.00;;;;;20.98;56.55;100629.69;5037104;28;45446;-39
2023/09/16 03:02:57;;;;;;;;;8.75;8.00;;;;;21.03;57.28;100635.28;5036760;28;46301;-38
2023/09/16 03:05:23;;;;;;;;;11.25;7.00;;;;;21.02;57.19;100636.31;5036986;28;45406;-38
2023/09/16 03:07:51;;;;;;;;;10.50;8.75;;;;;21.02;57.12;100630.91;5036470;28;45494;-39
2023/09/16 03:10:17;;;;;;;;;7.00;7.00;;;;;21.01;56.98;100628.44;5037156;28;45310;-40
2023/09/16 03:12:43;;;;;;;;;7.50;7.50;;;;;21.01;57.49;100620.31;5036524;28;46132;-38
2023/09/16 03:15:10;;;;;;;;;10.00;7.50;;;;;21.04;57.34;100619.88;5036551;28;45666;-39
2023/09/16 03:17:35;;;;;;;;;8.25;8.00;;;;;21.02;57.36;100622.78;5036773;28;45303;-40
2023/09/16 03:20:01;;;;;;;;;6.75;6.75;;;;;21.02;57.48;100621.97;5036798;28;45302;-39
2023/09/16 03:22:26;;;;;;;;;14.50;7.50;;;;;20.97;57.89;100619.09;5036464;28;47081;-39
2023/09/16 03:24:51;;;;;;;;;7.75;7.75;;;;;20.98;57.70;100624.28;5036563;28;45227;-39
2023/09/16 03:27:17;;;;;;;;;6.00;6.00;;;;;20.99;58.01;100625.13;5036566;28;45345;-40
2023/09/16 03:29:42;;;;;;;;;7.75;6.75;;;;;20.97;58.32;100617.22;5037030;28;45302;-41
2023/09/16 03:32:07;;;;;;;;;7.00;6.25;;;;;20.96;58.16;100610.16;5036330;28;45407;-40
2023/09/16 03:34:33;;;;;;;;;9.00;8.25;;;;;20.96;58.20;100615.56;5036267;28;45443;-39
2023/09/16 03:36:59;;;;;;;;;8.00;8.00;;;;;20.87;58.03;100619.59;5036355;28;45357;-40
2023/09/16 03:39:24;;;;;;;;;8.25;6.00;;;;;20.87;58.07;100625.00;5036546;28;45355;-38
2023/09/16 03:41:49;;;;;;;;;10.00;7.50;;;;;20.85;58.49;100617.06;5036198;28;45496;-41
2023/09/16 03:44:15;;;;;;;;;10.75;8.25;;;;;20.87;58.36;100606.06;5034889;28;45376;-40
2023/09/16 03:46:40;;;;;;;;;13.00;9.25;;;;;20.87;58.90;100606.88;5036370;28;45431;-39
2023/09/16 03:49:06;;;;;;;;;6.00;6.00;;;;;20.91;58.36;100618.09;5035405;28;45441;-41
2023/09/16 03:51:34;;;;;;;;;11.25;8.50;;;;;20.88;57.73;100629.34;5035800;28;46297;-40
2023/09/16 03:53:59;;;;;;;;;7.00;7.00;;;;;20.82;58.62;100620.22;5036237;28;45327;-40
2023/09/16 03:56:24;;;;;;;;;9.75;8.00;;;;;20.80;58.81;100613.38;5036161;28;45386;-39
2023/09/16 03:58:50;;;;;;;;;7.25;5.75;;;;;20.80;58.96;100607.97;5036455;28;45438;-41
2023/09/16 04:01:15;;;;;;;;;9.00;8.50;;;;;20.77;58.75;100600.28;5035912;28;47100;-41
2023/09/16 04:03:41;;;;;;;;;10.75;8.75;;;;;20.76;58.89;100606.75;5035834;28;45326;-41
2023/09/16 04:06:06;;;;;;;;;10.75;7.50;;;;;20.72;59.08;100594.72;5036324;28;45365;-41
2023/09/16 04:08:33;;;;;;;;;9.00;7.50;;;;;20.74;59.59;100585.34;5035936;28;45374;-41
2023/09/16 04:10:59;;;;;;;;;11.00;8.00;;;;;20.73;59.50;100591.81;5035881;28;46296;-40
2023/09/16 04:13:26;;;;;;;;;8.75;8.75;;;;;20.71;59.29;100595.75;5036039;28;45306;-40
2023/09/16 04:15:51;;;;;;;;;8.25;7.00;;;;;20.71;59.08;100593.06;5036003;28;45421;-41
2023/09/16 04:18:17;;;;;;;;;9.00;9.00;;;;;20.71;59.82;100598.47;5036098;28;45432;-40
2023/09/16 04:20:45;;;;;;;;;8.75;8.25;;;;;20.71;59.18;100593.06;5035633;28;45490;-41
2023/09/16 04:23:10;;;;;;;;;9.50;8.25;;;;;20.70;59.60;100589.53;5035476;28;45508;-40
2023/09/16 04:25:35;;;;;;;;;7.50;7.50;;;;;20.66;59.27;100591.84;5034847;28;45419;-40
2023/09/16 04:28:02;;;;;;;;;13.25;8.75;;;;;20.61;59.73;100585.44;5036014;28;45355;-42
2023/09/16 04:30:27;;;;;;;;;10.00;6.75;;;;;20.63;60.17;100580.63;5035751;28;45392;-39
2023/09/16 04:32:54;;;;;;;;;6.25;6.25;;;;;20.57;59.91;100590.44;5033542;28;45678;-40
2023/09/16 04:35:20;;;;;;;;;8.75;7.00;;;;;20.53;59.41;100577.56;5035506;28;45523;-38
2023/09/16 04:37:45;;;;;;;;;7.50;7.50;;;;;20.55;59.47;100579.00;5035747;28;45703;-39
2023/09/16 04:40:11;;;;;;;;;9.75;6.75;;;;;20.52;60.31;100584.84;5035434;28;45963;-40
2023/09/16 04:42:37;;;;;;;;;12.75;6.75;;;;;20.46;60.05;100585.66;5035513;28;45334;-40
2023/09/16 04:45:06;;;;;;;;;9.25;9.25;;;;;20.44;58.75;100591.28;5035498;28;45390;-40
2023/09/16 04:47:33;;;;;;;;;8.50;7.00;;;;;20.37;59.78;100582.38;5035615;28;45457;-40
2023/09/16 04:49:59;;;;;;;;;8.00;8.00;;;;;20.38;60.23;100594.84;5035356;28;46347;-41
2023/09/16 04:52:25;;;;;;;;;10.50;9.50;;;;;20.33;60.54;100602.78;5035281;28;45312;-40
2023/09/16 04:54:53;;;;;;;;;12.00;8.75;;;;;20.31;60.47;100590.50;5035714;28;45433;-41
2023/09/16 04:57:19;;;;;;;;;14.75;11.75;;;;;20.29;59.92;100592.59;5035493;28;45467;-39
2023/09/16 04:59:45;;;;;;;;;10.75;9.00;;;;;20.24;60.71;100592.44;5035679;28;46903;-40
2023/09/16 05:02:10;;;;;;;;;13.75;10.50;;;;;20.20;60.07;100592.03;5038634;28;45422;-40
2023/09/16 05:04:36;;;;;;;;;14.75;10.00;;;;;20.19;61.15;100588.50;5038651;28;45366;-40
2023/09/16 05:07:02;;;;;;;;;11.00;9.50;;;;;20.16;60.44;100596.19;5038620;28;45526;-40
2023/09/16 05:09:27;;;;;;;;;13.75;10.00;;;;;20.12;59.91;100597.66;5038392;28;46140;-41
2023/09/16 05:11:53;;;;;;;;;11.75;7.00;;;;;20.07;59.55;100600.16;5038665;28;45324;-40
2023/09/16 05:14:18;;;;;;;;;10.75;9.75;;;;;19.99;60.68;100601.22;5038622;28;45360;-38
2023/09/16 05:16:44;;;;;;;;;10.50;9.00;;;;;19.94;60.11;100611.84;5038942;28;45671;-39
2023/09/16 05:19:09;;;;;;;;;13.00;10.75;;;;;19.89;61.51;100614.34;5038283;28;45356;-39
2023/09/16 05:21:34;;;;;;;;;11.75;11.00;;;;;19.84;62.08;100611.44;5038409;28;45366;-38
2023/09/16 05:24:00;;;;;;;;;13.25;12.00;;;;;19.84;61.88;100611.44;5038003;28;45441;-41
2023/09/16 05:26:25;;;;;;;;;16.75;13.00;;;;;19.85;62.03;100613.94;5038834;28;45464;-41
2023/09/16 05:28:50;;;;;;;;;13.00;9.50;;;;;19.86;62.28;100618.28;5038105;28;46013;-40
2023/09/16 05:31:16;;;;;;;;;14.00;14.00;;;;;19.83;61.93;100613.28;5038190;28;45374;-40
2023/09/16 05:33:42;;;;;;;;;12.50;8.75;;;;;19.86;61.83;100612.06;5038384;28;45559;-39
2023/09/16 05:36:07;;;;;;;;;9.00;8.00;;;;;19.81;61.30;100612.69;5038143;28;45416;-40
2023/09/16 05:38:32;;;;;;;;;14.25;10.00;;;;;19.82;62.15;100611.66;5038062;28;47099;-39
2023/09/16 05:40:59;;;;;;;;;13.25;9.50;;;;;19.84;62.00;100624.91;5036632;28;46144;-40
2023/09/16 05:43:24;;;;;;;;;16.50;13.50;;;;;19.81;61.94;100611.88;5037425;28;45709;-37
2023/09/16 05:45:51;;;;;;;;;8.50;8.50;;;;;19.77;61.91;100597.13;5038243;28;46226;-39
2023/09/16 05:48:16;;;;;;;;;9.25;8.25;;;;;19.94;62.42;100622.63;5037931;28;45251;-40
2023/09/16 05:50:42;;;;;;;;;11.75;7.75;;;;;19.99;61.96;100628.22;5037894;28;45375;-43
2023/09/16 05:53:07;;;;;;;;;7.25;7.25;;;;;20.00;60.37;100621.78;5037850;28;45409;-42
2023/09/16 05:55:37;;;;;;;;;10.25;9.50;;;;;19.97;60.87;100613.25;5038336;28;45335;-41
2023/09/16 05:58:06;;;;;;;;;11.00;11.00;;;;;20.04;61.32;100630.28;5037362;28;45415;-42
2023/09/16 06:00:32;;;;;;;;;12.25;11.75;;;;;20.11;61.84;100633.81;5037518;28;45290;-42
2023/09/16 06:02:57;;;;;;;;;8.25;7.75;;;;;20.14;61.35;100642.31;5037789;28;45237;-41
2023/09/16 06:05:22;;;;;;;;;9.75;8.00;;;;;20.19;61.98;100636.28;5037722;28;45470;-40
2023/09/16 06:07:48;;;;;;;;;11.00;10.25;;;;;20.27;61.19;100640.59;5037572;28;46211;-41
2023/09/16 06:10:13;;;;;;;;;6.75;5.50;;;;;20.30;61.25;100642.88;5037422;28;49385;-38
2023/09/16 06:12:38;;;;;;;;;11.75;9.50;;;;;20.33;61.05;100634.34;5036789;28;45862;-40
2023/09/16 06:15:04;;;;;;;;;7.75;7.75;;;;;20.37;61.50;100644.53;5037851;28;45337;-41
2023/09/16 06:17:29;;;;;;;;;11.00;9.25;;;;;20.41;60.63;100644.94;5037384;28;46091;-39
2023/09/16 06:19:56;;;;;;;;;8.00;8.00;;;;;20.49;61.36;100646.59;5037847;28;45415;-38
2023/09/16 06:22:22;;;;;;;;;13.00;9.75;;;;;20.54;60.93;100654.88;5037715;28;45504;-39
2023/09/16 06:24:48;;;;;;;;;8.00;8.00;;;;;20.54;61.51;100654.88;5037444;28;45445;-38
2023/09/16 06:27:14;;;;;;;;;11.25;9.75;;;;;20.64;61.29;100663.34;5037258;28;46729;-38
2023/09/16 06:29:40;;;;;;;;;13.25;10.50;;;;;20.63;61.24;100659.81;5036626;28;45445;-39
2023/09/16 06:32:07;;;;;;;;;14.75;12.50;;;;;20.64;61.37;100658.78;5037204;28;45721;-39
2023/09/16 06:34:32;;;;;;;;;12.50;11.00;;;;;20.64;61.05;100668.75;5035986;28;45504;-40
2023/09/16 06:36:59;;;;;;;;;9.75;7.75;;;;;20.65;61.43;100675.84;5035870;28;45890;-39
2023/09/16 06:39:25;;;;;;;;;10.50;10.50;;;;;20.73;60.76;100669.34;5036275;28;45500;-37
2023/09/16 06:41:50;;;;;;;;;8.00;7.00;;;;;20.84;60.59;100665.97;5037183;28;45393;-40
2023/09/16 06:44:16;;;;;;;;;14.00;10.75;;;;;20.91;60.66;100664.06;5037185;28;45404;-39
2023/09/16 06:46:43;;;;;;;;;11.00;10.00;;;;;20.97;60.22;100671.31;5037355;28;46072;-42
2023/09/16 06:49:08;;;;;;;;;11.00;8.25;;;;;20.95;60.53;100651.78;5036128;28;45471;-39
2023/09/16 06:51:34;;;;;;;;;12.00;8.50;;;;;21.10;60.06;100668.50;5036930;28;45466;-39
2023/09/16 06:53:59;;;;;;;;;12.00;10.00;;;;;21.15;60.37;100663.31;5037176;28;45291;-40
2023/09/16 06:56:24;;;;;;;;;8.75;8.00;;;;;21.23;58.85;100664.91;5036710;28;53659;-40
2023/09/16 06:58:50;;;;;;;;;12.00;9.50;;;;;21.25;59.46;100670.94;5036799;28;45334;-40
2023/09/16 07:01:15;;;;;;;;;9.00;9.00;;;;;21.31;59.82;100661.09;5036387;28;45287;-39
2023/09/16 07:03:40;;;;;;;;;11.25;9.00;;;;;21.51;59.53;100666.41;5037248;28;45260;-40
2023/09/16 07:06:06;;;;;;;;;8.25;8.25;;;;;21.60;59.21;100656.94;5035386;28;45528;-40
2023/09/16 07:08:31;;;;;;;;;8.00;8.00;;;;;21.68;58.83;100659.38;5035587;28;45498;-37
2023/09/16 07:10:57;;;;;;;;;12.00;8.75;;;;;21.76;58.41;100658.28;5036615;28;45354;-38
2023/09/16 07:13:22;;;;;;;;;9.75;9.75;;;;;21.83;58.04;100646.34;5036788;28;45541;-39
2023/09/16 07:15:54;;;;;;;;;10.00;8.75;;;;;21.96;57.77;100645.38;5036541;28;46324;-40
2023/09/16 07:18:19;;;;;;;;;10.80;9.60;;;;;22.01;57.65;100637.41;5036677;28;45322;-39
2023/09/16 07:20:45;;;;;;;;;10.00;9.00;;;;;22.10;57.16;100651.47;5036625;28;45330;-39
2023/09/16 07:23:10;;;;;;;;;7.25;7.00;;;;;22.23;57.00;100656.78;5036544;28;45322;-40
2023/09/16 07:25:36;;;;;;;;;15.75;12.00;;;;;22.34;56.75;100649.78;5036266;28;46231;-38
2023/09/16 07:28:04;;;;;;;;;13.50;11.50;;;;;22.43;56.34;100629.44;5036401;28;46033;-41
2023/09/16 07:30:30;;;;;;;;;11.75;10.25;;;;;22.93;55.79;100661.78;5036564;28;45535;-40
2023/09/16 07:32:55;;;;;;;;;10.00;10.00;;;;;23.34;54.38;100660.97;5036851;28;45394;-40
2023/09/16 07:35:20;;;;;;;;;13.00;10.25;;;;;23.70;53.89;100661.84;5035818;28;46154;-41
2023/09/16 07:37:46;;;;;;;;;8.25;8.25;;;;;23.81;53.78;100662.94;5036314;28;45415;-38
2023/09/16 07:40:12;;;;;;;;;8.75;8.75;;;;;23.68;53.64;100657.72;5036382;28;45508;-40
2023/09/16 07:42:37;;;;;;;;;10.25;8.50;;;;;23.59;53.95;100658.03;5036415;28;45301;-40
2023/09/16 07:45:03;;;;;;;;;10.75;10.00;;;;;23.58;53.86;100659.09;5036190;28;46032;-42
2023/09/16 07:47:29;;;;;;;;;10.20;10.20;;;;;23.62;53.75;100670.31;5035582;28;45391;-40
2023/09/16 07:49:54;;;;;;;;;11.75;9.00;;;;;23.58;54.15;100672.66;5036340;28;45474;-42
2023/09/16 07:52:19;;;;;;;;;11.75;9.75;;;;;23.59;53.93;100677.03;5034954;28;45383;-40
2023/09/16 07:54:45;;;;;;;;;26.75;22.50;;;;;23.60;54.26;100673.28;5035831;28;46282;-40
2023/09/16 07:57:12;;;;;;;;;12.25;12.00;;;;;23.64;53.83;100663.59;5035891;28;45475;-41
2023/09/16 07:59:37;;;;;;;;;12.80;11.40;;;;;23.75;54.11;100672.00;5035616;28;45270;-40
2023/09/16 08:02:03;;;;;;;;;11.25;8.00;;;;;23.85;53.56;100678.53;5036085;28;45229;-41
2023/09/16 08:04:28;;;;;;;;;12.00;10.75;;;;;23.96;53.27;100682.28;5035575;28;46465;-41
2023/09/16 08:06:56;;;;;;;;;10.75;8.25;;;;;24.08;53.30;100676.84;5036040;28;45343;-39
2023/09/16 08:09:21;;;;;;;;;9.00;8.80;;;;;24.42;52.57;100679.78;5034988;28;45450;-44
2023/09/16 08:11:46;;;;;;;;;10.50;8.50;;;;;25.18;50.86;100678.59;5036148;28;45416;-40
2023/09/16 08:14:12;;;;;;;;;11.25;9.00;;;;;25.82;49.40;100675.59;5035577;28;45984;-39
2023/09/16 08:16:37;;;;;;;;;11.25;11.25;;;;;26.32;48.39;100677.38;5035749;28;45520;-39
2023/09/16 08:19:02;;;;;;;;;13.50;10.25;;;;;26.62;47.59;100666.88;5035853;28;45404;-38
2023/09/16 08:21:28;;;;;;;;;13.00;8.75;;;;;26.58;47.47;100671.19;5035896;28;45326;-39
2023/09/16 08:23:53;;;;;;;;;12.50;11.75;;;;;26.49;47.58;100667.28;5035438;28;45514;-39
2023/09/16 08:26:18;;;;;;;;;9.50;8.50;;;;;26.57;47.43;100675.00;5035562;28;45464;-40
2023/09/16 08:28:44;;;;;;;;;11.00;11.00;;;;;27.10;45.89;100670.72;5035906;28;45571;-41
2023/09/16 08:31:09;;;;;;;;;9.00;9.00;;;;;27.92;44.60;100654.19;5035752;28;45472;-40
2023/09/16 08:33:34;;;;;;;;;13.50;12.00;;;;;28.80;43.01;100663.34;5035588;28;46126;-39
2023/09/16 08:36:00;;;;;;;;;9.00;9.00;;;;;29.58;41.77;100652.25;5037765;28;45228;-41
2023/09/16 08:38:25;;;;;;;;;10.00;8.25;;;;;30.19;39.98;100651.31;5039283;28;45270;-40
2023/09/16 08:41:00;;;;;;;;;7.25;7.25;;;;;30.56;40.52;100666.56;5039247;28;45524;-39
2023/09/16 08:43:37;;;;;;;;;11.60;11.00;;;;;30.79;39.45;100671.38;5038855;28;46366;-40
2023/09/16 08:46:04;;;;;;;;;10.80;7.80;;;;;31.12;38.36;100668.16;5038990;28;45313;-41
2023/09/16 08:48:37;;;;;;;;;12.20;9.60;;;;;31.50;37.94;100661.84;5039136;28;45443;-39
2023/09/16 08:51:05;;;;;;;;;4.20;3.80;;;;;31.95;37.39;100665.31;5039150;28;45417;-40
2023/09/16 08:53:33;;;;;;;;;9.40;7.80;;;;;32.35;36.17;100663.19;5037306;28;47367;-41
2023/09/16 08:55:59;;;;;;;;;11.40;9.40;;;;;32.46;35.93;100667.47;5038704;28;45255;-40
2023/09/16 08:58:25;;;;;;;;;11.00;8.50;;;;;32.47;35.92;100660.03;5038963;28;45391;-41
2023/09/16 09:00:50;;;;;;;;;10.00;8.25;;;;;32.42;35.76;100658.16;5039139;28;45593;-40
2023/09/16 09:03:16;;;;;;;;;6.00;4.75;;;;;32.43;35.88;100651.53;5037345;28;47030;-42
2023/09/16 09:05:44;;;;;;;;;11.00;11.00;;;;;32.68;35.19;100663.34;5038608;28;45392;-42
2023/09/16 09:08:11;;;;;;;;;8.80;7.40;;;;;33.05;35.62;100664.50;5038778;28;45430;-40
2023/09/16 09:10:37;;;;;;;;;8.60;8.60;;;;;33.33;36.96;100671.75;5038711;28;45372;-40
2023/09/16 09:13:06;;;;;;;;;6.80;6.80;;;;;33.34;34.97;100667.88;5038245;28;46185;-38
2023/09/16 09:15:34;;;;;;;;;7.60;6.80;;;;;33.27;33.98;100665.50;5038391;28;45708;-40
2023/09/16 09:18:00;;;;;;;;;8.20;8.20;;;;;33.12;34.83;100660.25;5038648;28;45472;-40
2023/09/16 09:20:27;;;;;;;;;8.00;6.80;;;;;33.13;34.99;100661.06;5038759;28;45407;-38
2023/09/16 09:22:54;;;;;;;;;9.00;8.20;;;;;33.24;34.67;100668.84;5038432;28;47166;-39
2023/09/16 09:25:21;;;;;;;;;9.40;9.00;;;;;33.47;34.03;100672.66;5038502;28;45410;-41
2023/09/16 09:27:48;;;;;;;;;9.60;8.00;;;;;33.77;33.60;100663.00;5038361;28;45303;-39
2023/09/16 09:30:13;;;;;;;;;3.60;3.60;;;;;33.99;32.68;100667.88;5038480;28;46061;-38
2023/09/16 09:32:44;;;;;;;;;7.75;6.75;;;;;34.31;33.08;100657.03;5038271;28;45385;-41
2023/09/16 09:35:11;;;;;;;;;9.00;6.80;;;;;34.57;31.92;100662.88;5037969;28;45440;-41
2023/09/16 09:37:37;;;;;;;;;10.20;8.20;;;;;35.30;31.97;100664.50;5038497;28;45481;-41
2023/09/16 09:40:12;;;;;;;;;10.00;10.00;;;;;35.83;32.27;100673.97;5038291;28;45516;-40
2023/09/16 09:42:43;;;;;;;;;9.40;7.80;;;;;36.77;29.42;100667.13;5038097;28;45723;-39
2023/09/16 09:45:09;;;;;;;;;8.40;7.20;;;;;37.75;27.35;100650.88;5038001;28;45356;-40
2023/09/16 09:47:36;;;;;;;;;7.60;7.60;;;;;38.48;26.96;100659.09;5036949;28;45411;-41
2023/09/16 09:50:04;;;;;;;;;9.60;7.80;;;;;39.27;26.58;100658.13;5038404;28;45784;-40
2023/09/16 09:52:30;;;;;;;;;12.60;9.60;;;;;39.43;25.14;100636.03;5037972;28;45383;-41
2023/09/16 09:54:57;;;;;;;;;10.00;8.80;;;;;39.60;25.20;100638.63;5037947;28;45379;-41
2023/09/16 09:57:23;;;;;;;;;8.60;6.00;;;;;39.95;25.01;100642.97;5038027;28;45378;-40
2023/09/16 09:59:49;;;;;;;;;10.00;8.60;;;;;39.46;25.38;100617.84;5037907;28;45488;-41
2023/09/16 10:02:15;;;;;;;;;7.50;7.00;;;;;39.08;25.72;100633.59;5037860;28;45919;-39
2023/09/16 10:04:40;;;;;;;;;9.50;8.00;;;;;38.49;26.85;100633.72;5037647;28;45405;-40
2023/09/16 10:07:06;;;;;;;;;9.25;9.25;;;;;37.67;26.97;100633.94;5038011;28;45343;-41
2023/09/16 10:09:32;;;;;;;;;7.40;7.40;;;;;37.19;28.43;100645.28;5037986;28;45353;-41
2023/09/16 10:11:57;;;;;;;;;6.75;6.75;;;;;37.01;28.08;100640.91;5037580;28;46454;-40
2023/09/16 10:14:22;;;;;;;;;7.00;7.00;;;;;36.45;28.82;100635.13;5037819;28;45497;-41
2023/09/16 10:16:48;;;;;;;;;7.50;7.50;;;;;36.02;29.17;100633.03;5037756;28;45774;-40
2023/09/16 10:19:15;;;;;;;;;8.00;8.00;;;;;36.12;28.90;100621.69;5037916;28;45418;-40
2023/09/16 10:21:40;;;;;;;;;8.80;6.80;;;;;36.23;29.58;100633.25;5037473;28;46451;-39
2023/09/16 10:24:08;;;;;;;;;8.50;7.75;;;;;36.17;29.23;100631.78;5037233;28;45424;-39
2023/09/16 10:26:34;;;;;;;;;8.00;7.80;;;;;35.90;29.32;100633.63;5037347;28;45480;-43
2023/09/16 10:29:00;;;;;;;;;8.60;8.00;;;;;35.72;29.15;100638.25;5037731;28;45365;-40
2023/09/16 10:31:28;;;;;;;;;7.40;7.20;;;;;35.76;29.15;100630.13;5037340;28;46195;-42
2023/09/16 10:33:54;;;;;;;;;8.40;8.40;;;;;35.89;29.21;100633.94;5037667;28;45333;-43
2023/09/16 10:36:25;;;;;;;;;9.60;9.60;;;;;35.84;29.33;100629.34;5037324;28;45404;-41
2023/09/16 10:38:51;;;;;;;;;15.40;14.00;;;;;35.72;30.11;100634.66;5037527;28;45227;-41
2023/09/16 10:41:16;;;;;;;;;11.80;10.80;;;;;35.58;29.76;100634.75;5037122;28;47192;-41
2023/09/16 10:43:44;;;;;;;;;11.00;9.00;;;;;35.49;29.63;100631.13;5037110;28;45375;-41
2023/09/16 10:46:10;;;;;;;;;10.00;8.20;;;;;35.33;30.00;100627.91;5036901;28;45219;-41
2023/09/16 10:48:35;;;;;;;;;8.75;8.75;;;;;35.19;30.00;100641.81;5037429;28;45494;-40
2023/09/16 10:51:08;;;;;;;;;8.50;8.00;;;;;34.94;30.73;100642.41;5035627;28;47039;-41
2023/09/16 10:53:36;;;;;;;;;11.60;11.60;;;;;34.91;30.69;100643.84;5037013;28;45362;-40
2023/09/16 10:56:05;;;;;;;;;11.60;9.00;;;;;34.96;30.74;100645.66;5036904;28;45310;-40
2023/09/16 10:58:41;;;;;;;;;9.80;9.20;;;;;35.09;30.88;100644.00;5036603;28;45242;-40
2023/09/16 11:01:09;;;;;;;;;14.20;11.20;;;;;35.22;30.41;100638.41;5036521;28;46099;-40
2023/09/16 11:03:40;;;;;;;;;12.40;9.00;;;;;35.31;30.15;100644.00;5036869;28;45185;-39
2023/09/16 11:06:05;;;;;;;;;12.20;9.80;;;;;35.31;29.97;100641.22;5035618;28;45233;-41
2023/09/16 11:08:31;;;;;;;;;11.25;9.75;;;;;35.00;30.72;100644.75;5037002;28;45326;-40
2023/09/16 11:10:57;;;;;;;;;10.00;9.00;;;;;34.68;31.50;100648.53;5036616;28;47108;-40
2023/09/16 11:13:27;;;;;;;;;8.00;8.00;;;;;34.05;31.49;100629.13;5036870;28;45361;-41
2023/09/16 11:15:56;;;;;;;;;10.40;9.20;;;;;33.69;32.41;100644.41;5036645;28;45545;-41